createdAt,value
2018-03-11T00:00:50.552Z,3
2018-03-11T00:03:50.533Z,3.1
2018-03-11T00:06:50.801Z,3.1
2018-03-11T00:09:50.979Z,4.1
2018-03-11T00:12:50.798Z,3
2018-03-11T00:15:50.525Z,3
2018-03-11T00:18:50.534Z,3.3
2018-03-11T00:21:50.526Z,3.5
2018-03-11T00:24:50.521Z,3.2
2018-03-11T00:27:50.563Z,3.1
2018-03-11T00:30:50.519Z,2.9
2018-03-11T00:33:50.513Z,3.6
2018-03-11T00:36:50.541Z,2.9
2018-03-11T00:39:50.543Z,3.7
2018-03-11T00:42:50.523Z,4
2018-03-11T00:45:50.523Z,3.1
2018-03-11T00:48:50.512Z,2.9
2018-03-11T00:51:50.497Z,2.9
2018-03-11T00:54:50.576Z,3.2
2018-03-11T00:57:50.510Z,3.4
2018-03-11T01:00:50.560Z,2.9
2018-03-11T01:03:50.509Z,3.2
2018-03-11T01:06:50.512Z,2.9
2018-03-11T01:09:50.555Z,3.7
2018-03-11T01:12:50.507Z,3
2018-03-11T01:15:50.527Z,2.9
2018-03-11T01:18:50.500Z,3
2018-03-11T01:21:50.503Z,2.7
2018-03-11T01:24:50.523Z,2.8
2018-03-11T01:27:50.491Z,2.7
2018-03-11T01:30:50.531Z,2.9
2018-03-11T01:33:50.514Z,2.6
2018-03-11T01:36:50.527Z,2.7
2018-03-11T01:39:50.506Z,2.9
2018-03-11T01:42:50.488Z,3.1
2018-03-11T01:45:50.526Z,2.6
2018-03-11T01:48:50.492Z,2.9
2018-03-11T01:51:50.489Z,2.7
2018-03-11T01:54:50.508Z,3.1
2018-03-11T01:57:50.487Z,2.7
2018-03-11T02:00:50.501Z,2.7
2018-03-11T02:03:50.477Z,3.3
2018-03-11T02:06:50.499Z,3.1
2018-03-11T02:09:50.482Z,2.6
2018-03-11T02:12:50.553Z,3.1
2018-03-11T02:15:50.495Z,2.7
2018-03-11T02:18:50.505Z,2.8
2018-03-11T02:21:50.496Z,3.4
2018-03-11T02:24:50.506Z,2.6
2018-03-11T02:27:50.488Z,2.7
2018-03-11T02:30:50.796Z,2.6
2018-03-11T02:33:50.495Z,2.8
2018-03-11T02:36:50.489Z,3.1
2018-03-11T02:39:50.487Z,2.5
2018-03-11T02:42:50.481Z,2.8
2018-03-11T02:45:50.502Z,2.6
2018-03-11T02:48:50.532Z,2.6
2018-03-11T02:51:50.515Z,3
2018-03-11T02:54:50.504Z,2.5
2018-03-11T02:57:50.485Z,3.1
2018-03-11T03:00:50.502Z,2.7
2018-03-11T03:03:50.492Z,2.5
2018-03-11T03:06:50.517Z,2.5
2018-03-11T03:09:50.479Z,3
2018-03-11T03:12:50.483Z,2.5
2018-03-11T03:15:50.711Z,2.6
2018-03-11T03:18:50.458Z,2.7
2018-03-11T03:21:50.508Z,2.6
2018-03-11T03:24:50.439Z,2.9
2018-03-11T03:27:50.484Z,2.5
2018-03-11T03:30:51.069Z,2.9
2018-03-11T03:33:50.460Z,2.7
2018-03-11T03:36:50.575Z,2.8
2018-03-11T03:39:50.452Z,2.6
2018-03-11T03:42:50.626Z,2.5
2018-03-11T03:45:50.532Z,2.5
2018-03-11T03:48:50.588Z,2.5
2018-03-11T03:51:50.585Z,2.5
2018-03-11T03:54:50.453Z,2.6
2018-03-11T03:57:50.438Z,2.4
2018-03-11T04:00:50.449Z,2.7
2018-03-11T04:03:50.447Z,2.4
2018-03-11T04:06:50.442Z,2.4
2018-03-11T04:09:50.479Z,2.5
2018-03-11T04:12:50.440Z,2.7
2018-03-11T04:15:50.448Z,2.6
2018-03-11T04:18:50.458Z,2.4
2018-03-11T04:21:50.460Z,2.6
2018-03-11T04:24:50.432Z,2.4
2018-03-11T04:27:50.490Z,2.6
2018-03-11T04:30:50.462Z,2.5
2018-03-11T04:33:50.490Z,2.6
2018-03-11T04:36:50.432Z,2.4
2018-03-11T04:39:50.463Z,2.4
2018-03-11T04:42:50.434Z,2.3
2018-03-11T04:45:50.474Z,2.4
2018-03-11T04:48:50.457Z,2.3
2018-03-11T04:51:50.438Z,2.5
2018-03-11T04:54:50.436Z,2.4
2018-03-11T04:57:50.428Z,2.5
2018-03-11T05:00:50.427Z,2.4
2018-03-11T05:03:50.449Z,2.7
2018-03-11T05:06:50.435Z,2.2
2018-03-11T05:09:50.471Z,2.4
2018-03-11T05:12:50.440Z,2.4
2018-03-11T05:15:50.445Z,2.4
2018-03-11T05:18:50.427Z,2.3
2018-03-11T05:21:50.491Z,2.4
2018-03-11T05:24:50.431Z,2.3
2018-03-11T05:27:50.406Z,2.2
2018-03-11T05:30:50.448Z,2.3
2018-03-11T05:33:50.430Z,2.3
2018-03-11T05:36:50.529Z,2.3
2018-03-11T05:39:50.422Z,2.5
2018-03-11T05:42:50.413Z,2.2
2018-03-11T05:45:50.416Z,2.2
2018-03-11T05:48:50.409Z,2.3
2018-03-11T05:51:50.430Z,2
2018-03-11T05:54:50.446Z,2.2
2018-03-11T05:57:50.410Z,2.3
2018-03-11T06:00:50.411Z,2.2
2018-03-11T06:03:50.416Z,2.1
2018-03-11T06:06:50.448Z,2.1
2018-03-11T06:09:50.436Z,2.2
2018-03-11T06:12:50.408Z,2.2
2018-03-11T06:15:50.406Z,2.2
2018-03-11T06:18:50.414Z,2.2
2018-03-11T06:21:50.411Z,2.2
2018-03-11T06:24:50.436Z,2
2018-03-11T06:27:50.390Z,2.1
2018-03-11T06:30:50.397Z,2.2
2018-03-11T06:33:50.395Z,1.9
2018-03-11T06:36:50.405Z,1.8
2018-03-11T06:39:50.408Z,2.3
2018-03-11T06:42:50.445Z,2
2018-03-11T06:45:50.394Z,1.9
2018-03-11T06:48:50.416Z,2.1
2018-03-11T06:51:50.399Z,2.1
2018-03-11T06:54:50.400Z,2.1
2018-03-11T06:57:50.391Z,1.9
2018-03-11T07:00:50.429Z,2.5
2018-03-11T07:03:50.484Z,2.2
2018-03-11T07:06:50.416Z,2.1
2018-03-11T07:09:50.409Z,1.9
2018-03-11T07:12:50.388Z,2.1
2018-03-11T07:15:50.424Z,2.1
2018-03-11T07:18:50.429Z,2
2018-03-11T07:21:50.434Z,1.9
2018-03-11T07:24:50.426Z,1.9
2018-03-11T07:27:50.648Z,1.7
2018-03-11T07:30:50.405Z,2.1
2018-03-11T07:33:50.380Z,1.8
2018-03-11T07:36:50.377Z,1.9
2018-03-11T07:39:50.384Z,1.9
2018-03-11T07:42:50.402Z,2.1
2018-03-11T07:45:50.403Z,2.1
2018-03-11T07:48:50.401Z,2
2018-03-11T07:51:50.417Z,2
2018-03-11T07:54:50.395Z,2.1
2018-03-11T07:57:50.380Z,2
2018-03-11T08:00:50.394Z,2
2018-03-11T08:03:50.381Z,2
2018-03-11T08:06:50.383Z,2
2018-03-11T08:09:50.401Z,2
2018-03-11T08:12:50.402Z,1.8
2018-03-11T08:15:50.376Z,1.8
2018-03-11T08:18:50.410Z,2
2018-03-11T08:21:50.394Z,2
2018-03-11T08:24:50.382Z,2
2018-03-11T08:27:50.427Z,2
2018-03-11T08:30:50.372Z,1.9
2018-03-11T08:33:50.384Z,2.1
2018-03-11T08:36:50.378Z,2.5
2018-03-11T08:39:50.418Z,2.3
2018-03-11T08:42:50.916Z,4.1
2018-03-11T08:45:50.379Z,4.3
2018-03-11T08:48:50.380Z,7.1
2018-03-11T08:51:50.385Z,3.9
2018-03-11T08:54:50.418Z,4.7
2018-03-11T08:57:50.392Z,8.5
2018-03-11T09:00:50.408Z,7.6
2018-03-11T09:03:50.380Z,5
2018-03-11T09:06:50.362Z,8
2018-03-11T09:09:50.400Z,5
2018-03-11T09:12:50.372Z,7.2
2018-03-11T09:15:50.396Z,6.3
2018-03-11T09:18:50.360Z,3.4
2018-03-11T09:21:50.364Z,4.2
2018-03-11T09:24:50.398Z,4.1
2018-03-11T09:27:50.375Z,9.6
2018-03-11T09:30:50.403Z,5.7
2018-03-11T09:33:50.371Z,5.2
2018-03-11T09:36:50.360Z,2.9
2018-03-11T09:39:50.474Z,4.8
2018-03-11T09:42:50.372Z,3.5
2018-03-11T09:45:50.436Z,3.9
2018-03-11T09:48:50.377Z,2.6
2018-03-11T09:51:50.359Z,3.7
2018-03-11T09:54:50.435Z,4.3
2018-03-11T09:57:50.358Z,3.6
2018-03-11T10:00:50.217Z,2.8
2018-03-11T10:03:50.341Z,2.9
2018-03-11T10:06:50.376Z,2.7
2018-03-11T10:09:50.394Z,3.3
2018-03-11T10:12:50.367Z,2.9
2018-03-11T10:19:34.347Z,3.4
2018-03-11T10:22:34.369Z,4.5
2018-03-11T10:25:34.342Z,2.2
2018-03-11T10:28:34.329Z,6.5
2018-03-11T10:31:34.364Z,4.5
2018-03-11T10:38:28.100Z,3.6
2018-03-11T10:41:28.108Z,3.2
2018-03-11T10:44:28.549Z,2
2018-03-11T10:47:28.386Z,2.7
2018-03-11T10:50:28.109Z,3.4
2018-03-11T10:53:28.132Z,3
2018-03-11T12:02:20.684Z,3.1
2018-03-11T12:05:20.935Z,3.6
2018-03-11T12:08:20.695Z,2.8
2018-03-11T12:11:20.790Z,4.4
2018-03-11T12:43:31.018Z,3.7
2018-03-11T12:46:30.913Z,3.6
2018-03-11T12:49:30.922Z,2.3
2018-03-11T12:52:30.916Z,2.6
2018-03-11T12:55:30.948Z,2.8
2018-03-11T12:58:30.968Z,2.4
2018-03-11T13:01:30.922Z,3.2
2018-03-11T13:04:30.916Z,2.2
2018-03-11T13:07:30.927Z,2.1
2018-03-11T13:10:30.928Z,2
2018-03-11T13:13:31.051Z,2.2
2018-03-11T13:16:31.003Z,5.2
2018-03-11T13:19:31.381Z,4.3
2018-03-11T14:01:47.686Z,2.5
2018-03-11T14:04:47.748Z,2.3
2018-03-11T14:07:47.685Z,2.5
2018-03-11T14:10:47.667Z,2.5
2018-03-11T14:13:47.674Z,2.4
2018-03-11T14:16:47.716Z,2.5
2018-03-11T14:19:47.696Z,4.4
2018-03-11T14:22:47.670Z,5.2
2018-03-11T14:25:47.703Z,10.7
2018-03-11T14:28:47.756Z,2.7
2018-03-11T14:31:47.692Z,9.4
2018-03-11T14:34:48.134Z,6.6
2018-03-11T14:37:47.714Z,4.7
2018-03-11T14:40:47.772Z,5.1
2018-03-11T14:43:47.791Z,4.8
2018-03-11T14:46:47.665Z,6.7
2018-03-11T14:49:47.655Z,5.4
2018-03-11T14:52:47.782Z,3.4
2018-03-11T14:55:47.774Z,4.5
2018-03-11T14:58:47.650Z,5.5
2018-03-11T15:01:47.875Z,5.3
2018-03-11T15:04:47.639Z,6.1
2018-03-11T15:07:48.073Z,3.7
2018-03-11T15:10:47.661Z,2.6
2018-03-11T15:13:47.753Z,2.3
2018-03-11T15:16:47.679Z,3.1
2018-03-11T15:19:47.651Z,2.6
2018-03-11T15:22:47.650Z,2.8
2018-03-11T15:25:47.675Z,2.4
2018-03-11T15:28:47.657Z,2.4
2018-03-11T15:31:47.648Z,3.3
2018-03-11T15:34:47.659Z,3.4
2018-03-11T15:37:48.039Z,3.6
2018-03-11T15:40:47.736Z,3.4
2018-03-11T15:43:47.773Z,2.2
2018-03-11T15:46:47.671Z,2.2
2018-03-11T15:49:47.637Z,2.4
2018-03-11T15:52:47.684Z,2.1
2018-03-11T15:55:47.609Z,3.5
2018-03-11T15:58:47.711Z,2.1
2018-03-11T16:01:47.673Z,7.8
2018-03-11T16:04:47.643Z,6.8
2018-03-11T16:07:47.995Z,9
2018-03-11T16:10:47.613Z,7
2018-03-11T16:13:47.638Z,7.4
2018-03-11T16:16:47.696Z,5.3
2018-03-11T16:19:47.669Z,8.9
2018-03-11T16:22:47.670Z,6.1
2018-03-11T16:25:47.939Z,7.2
2018-03-11T16:28:47.650Z,5.6
2018-03-11T16:31:48.041Z,6.9
2018-03-11T16:34:47.672Z,7.8
2018-03-11T16:37:47.660Z,7.8
2018-03-11T16:40:47.594Z,4.4
2018-03-11T16:43:48.325Z,5
2018-03-11T16:46:48.400Z,7.6
2018-03-11T16:49:47.709Z,6.3
2018-03-11T16:52:47.595Z,10.9
2018-03-11T16:55:47.861Z,11.1
2018-03-11T16:58:47.737Z,6
2018-03-11T17:01:47.642Z,8.4
2018-03-11T17:04:47.592Z,6.9
2018-03-11T17:07:47.733Z,6.7
2018-03-11T17:10:47.638Z,7.4
2018-03-11T17:13:47.752Z,7.3
2018-03-11T17:16:47.638Z,6.6
2018-03-11T17:19:47.621Z,5.6
2018-03-11T17:22:47.633Z,4.2
2018-03-11T17:25:47.627Z,7.4
2018-03-11T17:28:47.656Z,4.3
2018-03-11T17:31:47.747Z,4.6
2018-03-11T17:34:47.586Z,3.6
2018-03-11T17:37:48.423Z,5.1
2018-03-11T17:40:47.663Z,5.4
2018-03-11T17:43:47.620Z,6.4
2018-03-11T17:46:47.605Z,4.6
2018-03-11T17:49:47.602Z,7.5
2018-03-11T17:52:48.456Z,5.7
2018-03-11T17:55:47.650Z,7.9
2018-03-11T17:58:48.942Z,3.5
2018-03-11T18:01:47.588Z,5.7
2018-03-11T18:04:47.706Z,4.1
2018-03-11T18:07:47.687Z,4
2018-03-11T18:10:48.113Z,4.2
2018-03-11T18:13:47.711Z,3.3
2018-03-11T18:16:47.653Z,4.5
2018-03-11T18:19:47.722Z,4.1
2018-03-11T18:22:47.599Z,4.1
2018-03-11T18:25:47.587Z,4.4
2018-03-11T18:28:47.675Z,3
2018-03-11T18:31:47.644Z,3.5
2018-03-11T18:34:48.051Z,3.3
2018-03-11T18:37:47.669Z,4.9
2018-03-11T18:40:47.648Z,3.7
2018-03-11T18:43:48.321Z,5
2018-03-11T18:46:47.613Z,6
2018-03-11T18:49:48.426Z,4.9
2018-03-11T18:52:47.688Z,3.4
2018-03-11T18:55:47.611Z,3.5
2018-03-11T18:58:47.640Z,5.1
2018-03-11T19:01:47.700Z,3.3
2018-03-11T19:04:47.620Z,4.1
2018-03-11T19:07:47.717Z,2.7
2018-03-11T19:10:47.601Z,4.3
2018-03-11T19:13:47.944Z,3.9
2018-03-11T19:16:48.436Z,2.6
2018-03-11T19:19:47.778Z,2.7
2018-03-11T19:22:47.635Z,4.8
2018-03-11T19:25:47.646Z,3.5
2018-03-11T19:28:47.659Z,3.6
2018-03-11T19:31:47.653Z,2.7
2018-03-11T19:34:47.705Z,3.1
2018-03-11T19:37:47.832Z,3
2018-03-11T19:40:47.625Z,3.1
2018-03-11T19:43:47.747Z,3.1
2018-03-11T19:46:47.705Z,3.5
2018-03-11T19:49:47.675Z,3.2
2018-03-11T19:52:47.552Z,2.6
2018-03-11T20:01:45.874Z,3.4
2018-03-11T20:04:46.028Z,3
2018-03-11T20:13:33.071Z,3.4
2018-03-11T20:20:24.897Z,6.1
2018-03-11T20:23:24.811Z,3.1
2018-03-11T20:26:25.083Z,3.3
2018-03-11T20:29:24.855Z,3.8
2018-03-11T20:32:24.820Z,3.5
2018-03-11T20:38:50.411Z,6.2
2018-03-11T20:41:50.496Z,3.5
2018-03-11T20:44:50.383Z,8.3
2018-03-11T20:47:50.496Z,3.8
2018-03-11T20:50:50.467Z,3.8
2018-03-11T20:53:50.769Z,4.1
2018-03-11T20:56:50.480Z,3.5
2018-03-11T21:02:49.496Z,4.1
2018-03-11T21:17:21.167Z,4.9
2018-03-11T21:20:21.014Z,5.1
2018-03-11T21:23:21.021Z,5.1
2018-03-11T21:26:21.003Z,3.8
2018-03-11T21:29:21.037Z,3.7
2018-03-11T21:32:21.021Z,4.5
2018-03-11T21:35:21.002Z,4.7
2018-03-11T21:38:21.704Z,4.7
2018-03-11T21:41:21.050Z,5.3
2018-03-11T21:44:20.986Z,3.7
2018-03-11T21:47:21.015Z,3.5
2018-03-11T21:50:21.005Z,4.3
2018-03-11T21:53:20.995Z,4.9
2018-03-11T21:56:21.086Z,5.2
2018-03-11T21:59:20.990Z,4.7
2018-03-11T22:02:21.012Z,3.2
2018-03-11T22:05:21.000Z,3.7
2018-03-11T22:08:21.011Z,3.7
2018-03-11T22:11:20.992Z,3.4
2018-03-11T22:14:21.046Z,4.2
2018-03-11T22:17:20.978Z,5.5
2018-03-11T22:20:21.522Z,4.7
2018-03-11T22:23:21.029Z,4.7
2018-03-11T22:26:20.979Z,3.5
2018-03-11T22:29:20.985Z,3.2
2018-03-11T22:32:21.007Z,3.5
2018-03-11T22:35:21.038Z,3.3
2018-03-11T22:38:20.982Z,3.9
2018-03-11T22:41:20.994Z,3.9
2018-03-11T22:44:21.009Z,3.7
2018-03-11T22:47:20.975Z,3.8
2018-03-11T22:50:20.966Z,3
2018-03-11T22:53:20.984Z,3.7
2018-03-11T22:56:21.095Z,3.6
2018-03-11T22:59:20.960Z,3.1
2018-03-11T23:02:20.977Z,3.4
2018-03-11T23:05:20.967Z,3.2
2018-03-11T23:08:21.364Z,3
2018-03-11T23:11:21.072Z,3.3
2018-03-11T23:14:20.958Z,3.4
2018-03-11T23:17:21.277Z,3.1
2018-03-11T23:20:21.005Z,3.1
2018-03-11T23:23:20.996Z,3.3
2018-03-11T23:26:20.988Z,2.9
2018-03-11T23:29:20.986Z,3
2018-03-11T23:32:21.106Z,3.4
2018-03-11T23:35:20.980Z,3.1
2018-03-11T23:38:21.003Z,3
2018-03-11T23:41:20.949Z,3
2018-03-11T23:44:20.998Z,3.4
2018-03-11T23:47:20.987Z,3
2018-03-11T23:50:20.979Z,3.3
2018-03-11T23:53:21.010Z,3.2
2018-03-11T23:56:21.012Z,3.5
2018-03-11T23:59:20.963Z,2.9
